Time;durP1;ratioP1;P1;durP2;ratioP2;P2;SDS_P1;SDS_P2;PMS_P1;PMS_P2;Temp;Humidity;BMP_temperature;BMP_pressure;BME280_temperature;BME280_humidity;BME280_pressure;Samples;Min_cycle;Max_cycle;Signal;HPM_P1;HPM_P2
2023/09/18 00:00:57;;;;;;;36.83;25.15;;;17.30;99.90;;;;;;5042136;28;20163;-75
2023/09/18 00:03:25;;;;;;;56.72;26.77;;;17.30;99.90;;;;;;5028921;28;20036;-75
2023/09/18 00:05:53;;;;;;;49.67;27.95;;;17.30;99.90;;;;;;5033690;28;20583;-75
2023/09/18 00:08:22;;;;;;;45.67;26.02;;;17.30;99.90;;;;;;5049262;28;20036;-75
2023/09/18 00:10:53;;;;;;;31.40;23.17;;;17.30;99.90;;;;;;5045347;28;20056;-75
2023/09/18 00:13:20;;;;;;;27.40;21.92;;;17.20;99.90;;;;;;5049429;28;20131;-76
2023/09/18 00:15:46;;;;;;;45.50;22.70;;;17.20;99.90;;;;;;5028798;28;20045;-76
2023/09/18 00:18:18;;;;;;;27.30;21.45;;;17.20;99.90;;;;;;5029949;28;20044;-76
2023/09/18 00:20:48;;;;;;;42.78;23.65;;;17.20;99.90;;;;;;5029634;28;20158;-76
2023/09/18 00:23:15;;;;;;;40.70;22.92;;;17.20;99.90;;;;;;5056415;28;20383;-76
2023/09/18 00:25:42;;;;;;;26.48;22.02;;;17.20;99.90;;;;;;5032674;28;20044;-76
2023/09/18 00:28:08;;;;;;;28.45;22.60;;;17.20;99.90;;;;;;5023650;28;20053;-76
2023/09/18 00:30:34;;;;;;;25.63;20.35;;;17.20;99.90;;;;;;5049162;28;20047;-76
2023/09/18 00:33:00;;;;;;;27.65;22.30;;;17.20;99.90;;;;;;5033784;28;20514;-77
2023/09/18 00:35:26;;;;;;;28.10;22.58;;;17.10;99.90;;;;;;5067253;28;20044;-77
2023/09/18 00:37:51;;;;;;;32.38;23.65;;;17.00;99.90;;;;;;5039786;28;20895;-76
2023/09/18 00:40:18;;;;;;;28.15;21.50;;;17.20;99.90;;;;;;5050973;28;20511;-75
2023/09/18 00:42:45;;;;;;;38.03;23.67;;;17.10;99.90;;;;;;5054493;28;20039;-77
2023/09/18 00:45:11;;;;;;;35.47;25.08;;;17.20;99.90;;;;;;5038149;28;20487;-78
2023/09/18 00:47:37;;;;;;;31.30;22.60;;;17.20;99.90;;;;;;5040988;28;20058;-77
2023/09/18 00:50:06;;;;;;;35.78;24.20;;;17.10;99.90;;;;;;5028022;28;20488;-76
2023/09/18 00:52:32;;;;;;;44.53;22.77;;;17.20;99.90;;;;;;5037398;28;20040;-77
2023/09/18 00:55:00;;;;;;;27.77;21.83;;;17.10;99.90;;;;;;5026483;28;20056;-76
2023/09/18 00:57:26;;;;;;;29.10;21.55;;;17.20;99.90;;;;;;5036521;28;20047;-77
2023/09/18 00:59:51;;;;;;;44.63;22.92;;;17.10;99.90;;;;;;5031857;28;20055;-77
2023/09/18 01:02:20;;;;;;;37.22;21.75;;;17.10;99.90;;;;;;5067203;28;20040;-76
2023/09/18 01:04:48;;;;;;;41.72;22.33;;;17.10;99.90;;;;;;5038751;28;20048;-77
2023/09/18 01:07:14;;;;;;;51.63;22.30;;;17.10;99.90;;;;;;5032262;28;20307;-77
2023/09/18 01:09:41;;;;;;;22.92;19.75;;;17.10;99.90;;;;;;5026646;28;20076;-76
2023/09/18 01:12:19;;;;;;;31.17;20.52;;;17.10;99.90;;;;;;5049538;28;20101;-77
2023/09/18 01:15:04;;;;;;;39.65;21.73;;;17.00;99.90;;;;;;5047064;28;20079;-76
2023/09/18 01:17:34;;;;;;;28.45;21.08;;;17.00;99.90;;;;;;5046490;28;20520;-77
2023/09/18 01:20:00;;;;;;;22.02;19.55;;;17.00;99.90;;;;;;5044307;28;20115;-76
2023/09/18 01:22:30;;;;;;;40.78;22.63;;;17.00;99.90;;;;;;5048060;28;20126;-77
2023/09/18 01:24:55;;;;;;;25.65;21.55;;;17.00;99.90;;;;;;5049844;28;20055;-77
2023/09/18 01:27:21;;;;;;;24.83;19.98;;;17.00;99.90;;;;;;5049752;28;20052;-77
2023/09/18 01:29:49;;;;;;;24.05;21.27;;;16.90;99.90;;;;;;5049839;28;20059;-76
2023/09/18 01:32:15;;;;;;;25.00;20.75;;;16.90;99.90;;;;;;5039796;28;20083;-76
2023/09/18 01:34:49;;;;;;;23.55;19.63;;;16.90;99.90;;;;;;5049764;28;20051;-76
2023/09/18 01:37:21;;;;;;;23.88;20.88;;;16.90;99.90;;;;;;5048584;28;20056;-77
2023/09/18 01:39:49;;;;;;;24.08;20.98;;;16.90;99.90;;;;;;5047744;28;20170;-77
2023/09/18 01:42:16;;;;;;;23.92;19.88;;;16.90;99.90;;;;;;5066223;28;20040;-77
2023/09/18 01:44:42;;;;;;;24.98;20.95;;;16.80;99.90;;;;;;5065983;28;20387;-76
2023/09/18 01:47:12;;;;;;;25.60;19.83;;;16.90;99.90;;;;;;5049235;28;20071;-76
2023/09/18 01:49:39;;;;;;;30.00;23.00;;;16.90;99.90;;;;;;5021502;28;20050;-77
2023/09/18 01:52:06;;;;;;;26.92;21.60;;;16.90;99.90;;;;;;5047696;28;20642;-77
2023/09/18 01:54:33;;;;;;;28.23;22.15;;;16.80;99.90;;;;;;5031109;28;20056;-77
2023/09/18 01:57:04;;;;;;;28.20;21.83;;;16.90;99.90;;;;;;5062746;28;20040;-77
2023/09/18 01:59:31;;;;;;;30.05;22.60;;;16.90;99.90;;;;;;5041106;28;20363;-76
2023/09/18 02:01:56;;;;;;;27.83;22.02;;;16.80;99.90;;;;;;5026099;28;20051;-77
2023/09/18 02:04:23;;;;;;;27.40;21.13;;;16.80;99.90;;;;;;5046589;28;20521;-76
2023/09/18 02:06:50;;;;;;;25.05;20.88;;;16.80;99.90;;;;;;5021225;28;20517;-76
2023/09/18 02:09:16;;;;;;;26.58;21.65;;;16.80;99.90;;;;;;5043701;28;20051;-77
2023/09/18 02:11:45;;;;;;;29.27;22.42;;;16.90;99.90;;;;;;5043525;28;20048;-77
2023/09/18 02:14:11;;;;;;;27.92;21.75;;;16.90;99.90;;;;;;5030499;28;20048;-77
2023/09/18 02:16:43;;;;;;;28.38;22.20;;;16.90;99.90;;;;;;5044745;28;20056;-76
2023/09/18 02:19:10;;;;;;;27.15;22.38;;;16.90;99.90;;;;;;5022341;28;20203;-77
2023/09/18 02:21:36;;;;;;;28.80;23.63;;;16.90;99.90;;;;;;5052018;28;20049;-77
2023/09/18 02:24:02;;;;;;;29.05;22.58;;;16.90;99.90;;;;;;5043700;28;20052;-77
2023/09/18 02:26:29;;;;;;;26.20;21.45;;;16.90;99.90;;;;;;5063077;28;20429;-76
2023/09/18 02:29:03;;;;;;;28.52;21.90;;;16.90;99.90;;;;;;5041982;28;20473;-76
2023/09/18 02:31:29;;;;;;;25.48;20.65;;;16.90;99.90;;;;;;5047760;28;20051;-76
2023/09/18 02:33:55;;;;;;;27.35;21.95;;;16.90;99.90;;;;;;5030774;28;20049;-76
2023/09/18 02:36:21;;;;;;;24.98;20.02;;;16.80;99.90;;;;;;5052112;28;20486;-76
2023/09/18 02:38:49;;;;;;;25.00;19.83;;;16.80;99.90;;;;;;5049547;28;20120;-76
2023/09/18 02:41:14;;;;;;;26.45;21.50;;;16.80;99.90;;;;;;5033135;28;20036;-76
2023/09/18 02:43:40;;;;;;;24.60;21.23;;;16.80;99.90;;;;;;5048131;28;20549;-76
2023/09/18 02:46:07;;;;;;;24.88;19.23;;;16.80;99.90;;;;;;5021563;28;20063;-76
2023/09/18 02:48:33;;;;;;;27.17;20.83;;;16.80;99.90;;;;;;5050269;28;20047;-76
2023/09/18 02:51:00;;;;;;;25.73;21.10;;;16.80;99.90;;;;;;5045651;28;20499;-76
2023/09/18 02:53:26;;;;;;;25.63;21.65;;;16.80;99.90;;;;;;5042059;28;20064;-75
2023/09/18 02:55:53;;;;;;;24.15;19.40;;;16.90;99.90;;;;;;5020954;28;20105;-75
2023/09/18 02:58:19;;;;;;;24.27;21.02;;;16.80;99.90;;;;;;5063776;28;20079;-75
2023/09/18 03:00:46;;;;;;;23.98;19.42;;;16.80;99.90;;;;;;5036519;28;20044;-76
2023/09/18 03:03:13;;;;;;;24.55;20.38;;;16.80;99.90;;;;;;5049984;28;20044;-75
2023/09/18 03:05:40;;;;;;;27.52;21.58;;;16.80;99.90;;;;;;5047445;28;20052;-75
2023/09/18 03:08:07;;;;;;;25.15;20.83;;;16.90;99.90;;;;;;5046924;28;20048;-75
2023/09/18 03:10:39;;;;;;;25.02;19.77;;;16.80;99.90;;;;;;5047060;28;20040;-76
2023/09/18 03:13:05;;;;;;;24.67;21.27;;;16.90;99.90;;;;;;5020897;28;20150;-77
2023/09/18 03:15:31;;;;;;;26.98;22.23;;;16.90;99.90;;;;;;5044199;28;20092;-76
2023/09/18 03:17:58;;;;;;;23.73;20.05;;;16.90;99.90;;;;;;5046740;28;20128;-77
2023/09/18 03:20:26;;;;;;;26.63;20.95;;;16.90;99.90;;;;;;5021404;28;20083;-76
2023/09/18 03:23:00;;;;;;;24.75;20.30;;;16.90;99.90;;;;;;5051291;28;20095;-75
2023/09/18 03:25:26;;;;;;;27.23;22.65;;;16.90;99.90;;;;;;5029403;28;20142;-77
2023/09/18 03:27:54;;;;;;;25.25;21.42;;;16.90;99.90;;;;;;5026925;28;20404;-77
2023/09/18 03:30:21;;;;;;;29.08;21.95;;;17.00;99.90;;;;;;5044174;28;20048;-77
2023/09/18 03:32:52;;;;;;;27.63;22.70;;;17.00;99.90;;;;;;5050690;28;20142;-76
2023/09/18 03:35:19;;;;;;;28.00;21.70;;;17.00;99.90;;;;;;5035377;28;20040;-76
2023/09/18 03:37:47;;;;;;;24.00;20.25;;;16.60;99.90;;;;;;5028740;28;20048;-77
2023/09/18 03:40:13;;;;;;;24.85;20.42;;;17.00;99.90;;;;;;5025709;28;20095;-76
2023/09/18 03:42:39;;;;;;;25.65;21.63;;;17.00;99.90;;;;;;5048200;28;20090;-76
2023/09/18 03:45:09;;;;;;;28.50;22.63;;;17.00;99.90;;;;;;5067161;28;20039;-76
2023/09/18 03:47:36;;;;;;;28.35;22.48;;;17.10;99.90;;;;;;5045335;28;20079;-76
2023/09/18 03:50:03;;;;;;;28.27;22.20;;;17.10;99.90;;;;;;5031172;28;20380;-76
2023/09/18 03:52:29;;;;;;;23.48;19.63;;;17.10;99.90;;;;;;5049556;28;20094;-76
2023/09/18 03:54:55;;;;;;;26.67;21.95;;;17.10;99.90;;;;;;5045365;28;20036;-77
2023/09/18 03:57:20;;;;;;;26.33;22.05;;;17.10;99.90;;;;;;5044689;28;20410;-76
2023/09/18 03:59:46;;;;;;;27.20;21.83;;;17.20;99.90;;;;;;5043229;28;20377;-76
2023/09/18 04:02:12;;;;;;;27.10;21.98;;;17.20;99.90;;;;;;5059348;28;20048;-77
2023/09/18 04:04:38;;;;;;;28.70;20.65;;;17.20;99.90;;;;;;5033580;28;20094;-76
2023/09/18 04:07:08;;;;;;;29.38;22.10;;;17.20;99.90;;;;;;5050412;28;20047;-77
2023/09/18 04:09:34;;;;;;;25.67;20.85;;;17.30;99.90;;;;;;5045997;28;20080;-77
2023/09/18 04:12:01;;;;;;;25.35;19.63;;;17.30;99.90;;;;;;5040319;28;20103;-77
2023/09/18 04:14:27;;;;;;;24.85;21.42;;;17.30;99.90;;;;;;5026681;28;20043;-76
2023/09/18 04:16:53;;;;;;;26.08;22.23;;;17.30;99.90;;;;;;5055199;28;20530;-77
2023/09/18 04:19:19;;;;;;;23.48;20.52;;;17.30;99.90;;;;;;5022688;28;20052;-76
2023/09/18 04:21:44;;;;;;;26.08;21.02;;;17.40;99.90;;;;;;5050955;28;20060;-76
2023/09/18 04:24:10;;;;;;;23.85;20.88;;;17.40;99.90;;;;;;5066288;28;20093;-77
2023/09/18 04:26:37;;;;;;;27.00;20.77;;;17.40;99.90;;;;;;5046833;28;20051;-77
2023/09/18 04:29:03;;;;;;;27.27;21.77;;;17.10;99.90;;;;;;5057054;28;20234;-76
2023/09/18 04:31:29;;;;;;;25.92;22.65;;;17.40;99.90;;;;;;5024470;28;20492;-76
2023/09/18 04:33:55;;;;;;;26.08;20.75;;;17.40;99.90;;;;;;5049382;28;20054;-77
2023/09/18 04:36:21;;;;;;;25.35;21.63;;;17.40;99.90;;;;;;5032377;28;20391;-76
2023/09/18 04:38:47;;;;;;;24.83;20.73;;;17.40;99.90;;;;;;5028224;28;20183;-76
2023/09/18 04:41:14;;;;;;;26.27;21.70;;;17.50;99.90;;;;;;5034276;28;20302;-76
2023/09/18 04:43:42;;;;;;;27.77;21.20;;;17.50;99.90;;;;;;5039416;28;20060;-76
2023/09/18 04:46:08;;;;;;;28.42;21.42;;;17.40;99.90;;;;;;5053665;28;20536;-76
2023/09/18 04:48:39;;;;;;;29.95;23.05;;;17.40;99.90;;;;;;5071302;28;20056;-76
2023/09/18 04:51:05;;;;;;;27.88;21.05;;;17.40;99.90;;;;;;5005236;28;20044;-75
2023/09/18 04:53:32;;;;;;;24.50;21.13;;;17.40;99.90;;;;;;5027476;28;20043;-75
2023/09/18 04:55:58;;;;;;;28.00;21.75;;;17.40;99.90;;;;;;5038597;28;20051;-76
2023/09/18 04:58:24;;;;;;;27.17;22.13;;;17.40;99.90;;;;;;5005893;28;20061;-74
2023/09/18 05:00:58;;;;;;;24.60;21.83;;;17.40;99.90;;;;;;5025356;28;20044;-75
2023/09/18 05:03:24;;;;;;;24.38;20.73;;;17.40;99.90;;;;;;5069846;28;20060;-76
2023/09/18 05:05:50;;;;;;;23.77;21.08;;;17.50;99.90;;;;;;4992886;28;20128;-76
2023/09/18 05:08:16;;;;;;;24.88;20.17;;;17.40;99.90;;;;;;5039962;28;20466;-75
2023/09/18 05:10:43;;;;;;;29.05;21.73;;;17.40;99.90;;;;;;5051401;28;20094;-76
2023/09/18 05:13:11;;;;;;;24.45;20.10;;;17.40;99.90;;;;;;5054871;28;20059;-76
2023/09/18 05:15:38;;;;;;;25.83;20.50;;;17.40;99.90;;;;;;5039763;28;20049;-77
2023/09/18 05:18:05;;;;;;;23.17;20.50;;;17.50;99.90;;;;;;5050595;28;20055;-77
2023/09/18 05:20:31;;;;;;;24.48;19.85;;;17.50;99.90;;;;;;5069618;28;20123;-77
2023/09/18 05:22:58;;;;;;;26.05;19.85;;;17.50;99.90;;;;;;5035329;28;20052;-77
2023/09/18 05:25:25;;;;;;;24.42;18.98;;;17.60;99.90;;;;;;5030799;28;20056;-76
2023/09/18 05:27:56;;;;;;;25.40;19.67;;;17.60;99.90;;;;;;5046523;28;20123;-77
2023/09/18 05:30:34;;;;;;;25.75;19.98;;;17.60;99.90;;;;;;5049532;28;20104;-77
2023/09/18 05:33:07;;;;;;;23.83;18.73;;;17.60;99.90;;;;;;5010315;28;20045;-76
2023/09/18 05:35:44;;;;;;;25.00;18.85;;;17.60;99.90;;;;;;5034248;28;20101;-75
2023/09/18 05:38:13;;;;;;;23.80;19.50;;;17.70;99.90;;;;;;5046983;28;20090;-76
2023/09/18 05:40:44;;;;;;;26.70;21.15;;;17.70;99.90;;;;;;5049268;28;20063;-76
2023/09/18 05:43:11;;;;;;;25.67;21.65;;;17.80;99.90;;;;;;5062876;28;20045;-75
2023/09/18 05:45:38;;;;;;;28.23;20.70;;;17.90;99.90;;;;;;5014303;28;20422;-76
2023/09/18 05:48:04;;;;;;;28.45;21.63;;;18.00;99.90;;;;;;5055206;28;20047;-77
2023/09/18 05:50:32;;;;;;;26.30;21.33;;;18.10;99.90;;;;;;5056172;28;20056;-76
2023/09/18 05:53:03;;;;;;;22.58;18.00;;;18.10;99.90;;;;;;5035581;28;20035;-75
2023/09/18 05:55:33;;;;;;;11.93;8.43;;;18.30;99.90;;;;;;5048460;28;20055;-76
2023/09/18 05:58:00;;;;;;;7.10;4.53;;;18.30;99.90;;;;;;5057317;28;20048;-76
2023/09/18 06:00:26;;;;;;;4.53;2.95;;;18.40;99.90;;;;;;5039868;28;20067;-76
2023/09/18 06:02:52;;;;;;;8.20;2.65;;;18.40;99.90;;;;;;5050971;28;20033;-77
2023/09/18 06:05:22;;;;;;;8.85;2.60;;;18.30;99.90;;;;;;5051857;28;20127;-76
2023/09/18 06:07:51;;;;;;;13.70;2.75;;;18.30;99.90;;;;;;5050009;28;20048;-76
2023/09/18 06:10:17;;;;;;;11.38;3.10;;;18.40;99.90;;;;;;5035253;28;20040;-76
2023/09/18 06:12:44;;;;;;;7.70;3.20;;;18.30;99.90;;;;;;5033222;28;20052;-76
2023/09/18 06:15:11;;;;;;;10.43;2.75;;;18.30;99.90;;;;;;5023724;28;20063;-77
2023/09/18 06:17:42;;;;;;;8.70;2.58;;;18.30;99.90;;;;;;5025100;28;20518;-75
2023/09/18 06:20:09;;;;;;;12.25;3.80;;;18.30;99.90;;;;;;5048880;28;20103;-77
2023/09/18 06:22:38;;;;;;;10.95;4.15;;;18.30;99.90;;;;;;5049820;28;20048;-77
2023/09/18 06:25:04;;;;;;;12.60;3.92;;;18.30;99.90;;;;;;5048620;28;20048;-76
2023/09/18 06:27:32;;;;;;;12.23;4.22;;;18.30;99.90;;;;;;5046827;28;20139;-75
2023/09/18 06:29:58;;;;;;;19.23;5.03;;;18.40;99.90;;;;;;5048992;28;20097;-75
2023/09/18 06:32:23;;;;;;;10.05;5.03;;;18.40;99.90;;;;;;5046340;28;20041;-76
2023/09/18 06:34:49;;;;;;;16.70;5.40;;;18.50;99.90;;;;;;5027692;28;20329;-76
2023/09/18 06:37:15;;;;;;;15.20;5.72;;;18.50;99.90;;;;;;5027715;28;20154;-76
2023/09/18 06:39:44;;;;;;;15.68;6.88;;;18.50;99.90;;;;;;5049430;28;20048;-75
2023/09/18 06:42:09;;;;;;;16.80;7.18;;;18.60;99.90;;;;;;5048597;28;20044;-76
2023/09/18 06:44:35;;;;;;;13.65;6.90;;;18.60;99.90;;;;;;5043833;28;20058;-74
2023/09/18 06:47:02;;;;;;;12.27;6.90;;;18.60;99.90;;;;;;5042410;28;20641;-76
2023/09/18 06:49:30;;;;;;;11.00;6.82;;;18.60;99.90;;;;;;5026916;28;20505;-76
2023/09/18 06:51:56;;;;;;;10.77;7.13;;;18.70;99.90;;;;;;5047695;28;20525;-76
2023/09/18 06:54:22;;;;;;;12.68;7.50;;;18.80;99.90;;;;;;5032071;28;20049;-76
2023/09/18 06:56:48;;;;;;;12.27;7.80;;;18.80;99.90;;;;;;5015368;28;20499;-75
2023/09/18 06:59:14;;;;;;;11.40;8.18;;;18.80;99.90;;;;;;5029523;28;20044;-76
2023/09/18 07:01:42;;;;;;;12.10;8.50;;;18.80;99.90;;;;;;5042797;28;20041;-75
2023/09/18 07:04:08;;;;;;;13.88;9.20;;;18.80;99.90;;;;;;5023770;28;20047;-75
2023/09/18 07:06:34;;;;;;;11.00;8.45;;;18.80;99.90;;;;;;5046796;28;20163;-75
2023/09/18 07:09:00;;;;;;;14.20;9.10;;;18.80;99.90;;;;;;5047465;28;20115;-75
2023/09/18 07:11:26;;;;;;;14.82;8.85;;;18.90;99.90;;;;;;5063486;28;20052;-76
2023/09/18 07:13:53;;;;;;;13.20;9.18;;;18.90;99.90;;;;;;5051698;28;20044;-76
2023/09/18 07:16:19;;;;;;;13.10;8.63;;;18.90;99.90;;;;;;5063782;28;20041;-76
2023/09/18 07:18:44;;;;;;;13.38;8.88;;;18.90;99.90;;;;;;5066420;28;20044;-75
2023/09/18 07:21:10;;;;;;;13.75;8.82;;;18.90;99.90;;;;;;5049506;28;20486;-76
2023/09/18 07:23:37;;;;;;;12.85;8.52;;;18.90;99.90;;;;;;5046577;28;20044;-75
2023/09/18 07:26:04;;;;;;;11.88;8.48;;;19.00;99.90;;;;;;5020773;28;20135;-76
2023/09/18 07:28:30;;;;;;;11.07;7.63;;;19.00;99.90;;;;;;5047105;28;20319;-75
2023/09/18 07:30:55;;;;;;;10.52;7.20;;;19.00;99.90;;;;;;5064016;28;20570;-76
2023/09/18 07:33:21;;;;;;;16.40;6.97;;;19.00;99.90;;;;;;5029141;28;20059;-77
2023/09/18 07:35:48;;;;;;;10.38;6.93;;;18.90;99.90;;;;;;5063509;28;20420;-76
2023/09/18 07:38:14;;;;;;;10.43;6.07;;;18.90;99.90;;;;;;5057467;28;20064;-76
2023/09/18 07:40:40;;;;;;;9.63;5.43;;;18.90;99.90;;;;;;5029077;28;20123;-76
2023/09/18 07:43:06;;;;;;;6.88;4.80;;;18.90;99.90;;;;;;5027935;28;20512;-76
2023/09/18 07:45:34;;;;;;;8.38;4.60;;;18.90;99.90;;;;;;5043309;28;20508;-77
2023/09/18 07:47:59;;;;;;;7.40;4.75;;;18.90;99.90;;;;;;5042763;28;20387;-75
2023/09/18 07:50:25;;;;;;;7.38;4.28;;;18.80;99.90;;;;;;5031703;28;20050;-76
2023/09/18 07:52:51;;;;;;;8.23;4.65;;;18.80;99.90;;;;;;5010614;28;20044;-76
2023/09/18 07:55:17;;;;;;;9.13;4.30;;;18.80;99.90;;;;;;5025573;28;20135;-76
2023/09/18 07:57:44;;;;;;;6.40;4.05;;;18.90;99.90;;;;;;5041794;28;20119;-76
2023/09/18 08:00:12;;;;;;;7.38;3.90;;;18.90;99.90;;;;;;5050719;28;20048;-76
2023/09/18 08:02:39;;;;;;;7.13;4.05;;;18.90;99.90;;;;;;5013383;28;20063;-76
2023/09/18 08:05:05;;;;;;;6.85;4.18;;;18.90;99.90;;;;;;5028329;28;20053;-76
2023/09/18 08:07:32;;;;;;;6.00;4.13;;;18.90;99.90;;;;;;5043049;28;20126;-77
2023/09/18 08:09:57;;;;;;;7.60;3.92;;;18.90;99.90;;;;;;5046373;28;20036;-77
2023/09/18 08:12:24;;;;;;;8.02;4.20;;;18.90;99.90;;;;;;5042278;28;20053;-76
2023/09/18 08:14:50;;;;;;;7.68;4.10;;;19.00;99.90;;;;;;5042576;28;20056;-76
2023/09/18 08:17:16;;;;;;;7.63;4.20;;;19.00;99.90;;;;;;5049620;28;20056;-76
2023/09/18 08:19:44;;;;;;;9.07;3.90;;;19.00;99.90;;;;;;5029166;28;20047;-76
2023/09/18 08:22:11;;;;;;;6.72;3.95;;;19.00;99.90;;;;;;5029143;28;20087;-76
2023/09/18 08:24:37;;;;;;;8.05;4.18;;;19.00;99.90;;;;;;5063288;28;20053;-76
2023/09/18 08:27:03;;;;;;;8.07;4.18;;;19.00;99.90;;;;;;5046500;28;20085;-75
2023/09/18 08:29:29;;;;;;;6.03;3.70;;;19.10;99.90;;;;;;5025922;28;20091;-76
2023/09/18 08:31:55;;;;;;;6.93;4.20;;;19.10;99.90;;;;;;5043887;28;20062;-75
2023/09/18 08:34:20;;;;;;;6.47;4.13;;;19.10;99.90;;;;;;5047548;28;20313;-76
2023/09/18 08:36:46;;;;;;;5.45;4.20;;;19.10;99.90;;;;;;5031270;28;20043;-76
2023/09/18 08:39:12;;;;;;;6.63;3.70;;;19.20;99.90;;;;;;5065179;28;20439;-76
2023/09/18 08:41:49;;;;;;;8.70;5.07;;;19.20;99.90;;;;;;5046637;28;20118;-77
2023/09/18 08:44:15;;;;;;;6.00;5.00;;;19.30;99.90;;;;;;5051874;28;20430;-76
2023/09/18 08:46:41;;;;;;;8.40;5.28;;;19.40;99.90;;;;;;5000742;28;20067;-76
2023/09/18 08:49:08;;;;;;;9.25;5.68;;;19.50;99.90;;;;;;5050076;28;20127;-77
2023/09/18 08:51:35;;;;;;;7.70;5.32;;;19.60;99.90;;;;;;5032310;28;20483;-77
2023/09/18 08:54:02;;;;;;;9.43;5.28;;;19.60;99.90;;;;;;5049185;28;20053;-77
2023/09/18 08:56:30;;;;;;;9.88;5.50;;;19.70;99.90;;;;;;5031006;28;20549;-77
2023/09/18 08:58:58;;;;;;;9.88;6.57;;;19.80;99.90;;;;;;5029106;28;20048;-76
2023/09/18 09:01:29;;;;;;;10.77;7.35;;;20.00;99.90;;;;;;5040368;28;20036;-77
2023/09/18 09:03:55;;;;;;;9.75;6.75;;;20.10;99.90;;;;;;5034655;28;20040;-76
2023/09/18 09:06:21;;;;;;;10.55;7.50;;;20.10;99.90;;;;;;5066509;28;20047;-77
2023/09/18 09:08:47;;;;;;;10.45;7.28;;;20.20;99.90;;;;;;5069098;28;20514;-76
2023/09/18 09:11:12;;;;;;;11.68;7.90;;;20.30;99.90;;;;;;5032136;28;20053;-77
2023/09/18 09:13:39;;;;;;;14.20;8.80;;;20.30;99.90;;;;;;5011691;28;20372;-77
2023/09/18 09:16:05;;;;;;;11.60;8.50;;;20.40;99.90;;;;;;5032585;28;20059;-75
2023/09/18 09:18:31;;;;;;;11.23;7.85;;;20.60;99.90;;;;;;5069045;28;20040;-77
2023/09/18 09:21:01;;;;;;;13.07;8.48;;;20.80;99.90;;;;;;5031735;28;20094;-76
2023/09/18 09:23:28;;;;;;;11.48;8.52;;;21.00;99.90;;;;;;5047553;28;20080;-76
2023/09/18 09:26:14;;;;;;;13.52;9.18;;;21.30;99.90;;;;;;5064277;28;20108;-76
2023/09/18 09:28:42;;;;;;;11.45;9.07;;;21.70;99.90;;;;;;5046837;28;20072;-76
2023/09/18 09:31:10;;;;;;;12.30;9.55;;;21.90;99.90;;;;;;5066168;28;20246;-77
2023/09/18 09:33:38;;;;;;;12.18;9.32;;;22.10;99.90;;;;;;5061545;28;20088;-77
2023/09/18 09:36:07;;;;;;;12.68;9.68;;;22.10;99.90;;;;;;5028459;28;20082;-76
2023/09/18 09:38:34;;;;;;;11.65;10.13;;;22.10;99.90;;;;;;5044477;28;20407;-76
2023/09/18 09:41:01;;;;;;;15.55;10.55;;;22.20;99.90;;;;;;5051431;28;20048;-77
2023/09/18 09:43:30;;;;;;;13.43;10.55;;;22.20;99.90;;;;;;5060001;28;20156;-76
2023/09/18 09:46:01;;;;;;;13.32;10.48;;;22.30;99.90;;;;;;5063149;28;20267;-77
2023/09/18 09:48:30;;;;;;;11.27;10.07;;;22.50;99.90;;;;;;5026421;28;20041;-76
2023/09/18 09:51:00;;;;;;;10.73;9.60;;;22.60;99.90;;;;;;5039249;28;20446;-77
2023/09/18 09:53:50;;;;;;;10.70;9.27;;;22.60;99.90;;;;;;5031782;28;20045;-76
2023/09/18 09:56:21;;;;;;;11.63;9.18;;;22.50;99.90;;;;;;5006516;28;20062;-76
2023/09/18 09:59:08;;;;;;;9.77;8.75;;;22.40;99.90;;;;;;5045767;28;20077;-76
2023/09/18 10:01:34;;;;;;;;;;;22.30;99.90;;;;;;5049610;28;20445;-77
2023/09/18 10:04:10;;;;;;;11.00;8.98;;;22.00;99.90;;;;;;5048177;28;19924;-78
2023/09/18 10:06:37;;;;;;;11.30;8.15;;;22.10;99.90;;;;;;5052366;28;20044;-76
2023/09/18 10:09:07;;;;;;;8.70;7.88;;;22.30;99.90;;;;;;5048817;28;20044;-77
2023/09/18 10:11:36;;;;;;;7.15;5.90;;;22.40;99.90;;;;;;5055612;28;20082;-77
2023/09/18 10:14:12;;;;;;;12.75;4.05;;;22.70;99.90;;;;;;5048801;28;20054;-77
2023/09/18 10:16:41;;;;;;;6.80;3.33;;;22.90;99.90;;;;;;5044413;28;20052;-77
2023/09/18 10:19:11;;;;;;;4.55;3.03;;;23.00;98.90;;;;;;5040173;28;20052;-76
2023/09/18 10:22:20;;;;;;;7.30;3.00;;;23.20;97.70;;;;;;5064609;28;20378;-76
2023/09/18 10:24:49;;;;;;;6.53;2.45;;;23.40;96.40;;;;;;5046680;28;20074;-77
2023/09/18 10:27:17;;;;;;;6.88;2.58;;;23.60;95.90;;;;;;5047368;28;20513;-77
2023/09/18 10:29:45;;;;;;;5.25;2.45;;;23.80;94.50;;;;;;5047898;28;20056;-78
2023/09/18 10:32:13;;;;;;;8.05;2.70;;;23.80;93.50;;;;;;5047649;28;20050;-77
2023/09/18 10:34:39;;;;;;;5.07;2.60;;;23.90;92.90;;;;;;5046217;28;20060;-77
2023/09/18 10:37:08;;;;;;;5.60;3.08;;;24.00;92.30;;;;;;5050350;28;20060;-77
2023/09/18 10:39:39;;;;;;;6.35;3.22;;;24.20;91.30;;;;;;5056267;28;20066;-77
2023/09/18 10:42:08;;;;;;;5.97;3.35;;;24.40;90.40;;;;;;5061368;28;20044;-77
2023/09/18 10:44:35;;;;;;;6.65;3.55;;;24.50;88.70;;;;;;5040963;28;20387;-77
2023/09/18 10:47:05;;;;;;;6.80;3.17;;;24.80;87.40;;;;;;5033790;28;20043;-76
2023/09/18 10:49:31;;;;;;;4.80;2.97;;;24.90;82.40;;;;;;5047193;28;20463;-78
2023/09/18 10:51:58;;;;;;;6.00;2.75;;;25.10;79.50;;;;;;5030048;28;20664;-77
2023/09/18 10:54:25;;;;;;;5.50;2.88;;;25.20;76.10;;;;;;5030361;28;20047;-78
2023/09/18 10:56:52;;;;;;;3.75;2.40;;;25.30;72.60;;;;;;5044304;28;20123;-77
2023/09/18 10:59:20;;;;;;;5.43;2.50;;;25.60;72.60;;;;;;5029543;28;20076;-76
2023/09/18 11:01:48;;;;;;;6.03;2.30;;;25.70;68.20;;;;;;5032168;28;20053;-77
2023/09/18 11:04:19;;;;;;;5.57;2.30;;;25.80;64.70;;;;;;5027388;28;20098;-77
2023/09/18 11:06:54;;;;;;;5.10;2.17;;;26.00;61.30;;;;;;5042736;28;20079;-77
2023/09/18 11:09:25;;;;;;;5.85;2.20;;;26.10;58.30;;;;;;5051434;28;20087;-78
2023/09/18 11:12:04;;;;;;;6.80;1.90;;;26.20;56.80;;;;;;5045064;28;20193;-78
2023/09/18 11:14:56;;;;;;;6.72;1.83;;;26.30;49.70;;;;;;5057877;28;20041;-78
2023/09/18 11:17:40;;;;;;;5.32;1.77;;;26.30;36.20;;;;;;5027736;28;20483;-78
2023/09/18 11:20:15;;;;;;;5.07;2.00;;;26.50;50.50;;;;;;5054985;28;20044;-79
2023/09/18 11:23:10;;;;;;;5.80;2.22;;;26.40;42.80;;;;;;5070210;28;20048;-78
2023/09/18 11:25:41;;;;;;;6.07;1.92;;;26.40;38.40;;;;;;5055328;28;20473;-78
2023/09/18 11:28:23;;;;;;;6.78;2.45;;;26.30;39.60;;;;;;5049051;28;20055;-78
2023/09/18 11:31:01;;;;;;;8.70;2.50;;;26.20;39.70;;;;;;5065352;28;20047;-78
2023/09/18 11:33:37;;;;;;;;;;;26.30;46.20;;;;;;5050225;28;20455;-79
2023/09/18 11:36:06;;;;;;;7.18;2.30;;;26.30;48.30;;;;;;5016947;28;19996;-77
2023/09/18 11:38:35;;;;;;;6.30;2.22;;;26.40;48.10;;;;;;5065615;28;20083;-78
2023/09/18 11:41:19;;;;;;;8.13;2.20;;;26.60;43.50;;;;;;5048321;28;20040;-78
2023/09/18 11:43:45;;;;;;;6.40;2.58;;;26.70;37.70;;;;;;5049871;28;20054;-76
2023/09/18 11:46:12;;;;;;;7.03;2.45;;;26.70;34.90;;;;;;5062404;28;20116;-79
2023/09/18 11:48:41;;;;;;;9.65;3.10;;;26.70;30.00;;;;;;5041237;28;20150;-78
2023/09/18 11:51:11;;;;;;;5.88;2.78;;;27.00;28.20;;;;;;5047903;28;20048;-78
2023/09/18 11:53:40;;;;;;;6.32;2.70;;;27.10;23.70;;;;;;5068884;28;20052;-76
2023/09/18 11:56:14;;;;;;;5.10;2.60;;;27.10;15.10;;;;;;5026348;28;20048;-78
2023/09/18 11:58:50;;;;;;;5.05;2.40;;;27.00;17.80;;;;;;5047574;28;20088;-78
2023/09/18 12:01:18;;;;;;;4.28;2.58;;;26.80;10.70;;;;;;5034082;28;20129;-78
2023/09/18 12:03:44;;;;;;;6.50;2.53;;;26.90;18.50;;;;;;5047594;28;20173;-77
2023/09/18 12:06:13;;;;;;;4.95;2.00;;;27.10;19.50;;;;;;5046858;28;20045;-78
2023/09/18 12:08:40;;;;;;;6.95;2.33;;;27.30;14.00;;;;;;5030289;28;20470;-78
2023/09/18 12:11:07;;;;;;;7.22;2.45;;;27.50;3.30;;;;;;5025847;28;20072;-78
2023/09/18 12:13:33;;;;;;;5.43;2.53;;;27.80;1.00;;;;;;5035300;28;20052;-78
2023/09/18 12:16:01;;;;;;;4.20;2.20;;;27.80;1.00;;;;;;5042593;28;20219;-77
2023/09/18 12:18:28;;;;;;;6.45;2.17;;;27.80;1.00;;;;;;5045479;28;20053;-77
2023/09/18 12:20:58;;;;;;;4.88;2.10;;;27.90;1.00;;;;;;5048059;28;20082;-77
2023/09/18 12:23:24;;;;;;;7.97;1.80;;;28.00;1.00;;;;;;5024625;28;20701;-78
2023/09/18 12:25:58;;;;;;;6.28;2.10;;;27.90;1.00;;;;;;5053566;28;20049;-76
2023/09/18 12:28:27;;;;;;;5.72;2.10;;;27.80;1.00;;;;;;5048721;28;20491;-77
2023/09/18 12:30:56;;;;;;;5.93;2.40;;;27.50;1.00;;;;;;5047651;28;20052;-78
2023/09/18 12:33:24;;;;;;;6.20;2.10;;;27.40;1.00;;;;;;5029520;28;20476;-77
2023/09/18 12:35:53;;;;;;;7.13;2.22;;;27.40;1.00;;;;;;5051444;28;20554;-76
2023/09/18 12:38:24;;;;;;;6.43;2.00;;;27.40;1.00;;;;;;5047187;28;20522;-77
2023/09/18 12:40:50;;;;;;;4.35;2.17;;;27.30;1.00;;;;;;5064196;28;20057;-77